Time,TemperatureF,DewpointF,PressureIn,WindDirection,WindDirectionDegrees,WindSpeedMPH,WindSpeedGustMPH,Humidity,HourlyPrecipIn,Conditions,Clouds,dailyrainin,SoftwareType,DateUTC
2013-02-20 00:01:00,54.0,34.0,29.71,West,270,5.0,8.0,47,0.00,,,0.00,,2013-02-20 07:01:00,
2013-02-20 00:11:00,54.0,34.0,29.71,West,270,5.0,8.0,47,0.00,,,0.00,,2013-02-20 07:11:00,
2013-02-20 00:21:00,54.0,34.0,29.70,West,270,3.0,5.0,47,0.00,,,0.00,,2013-02-20 07:21:00,
2013-02-20 00:31:00,54.0,34.0,29.70,West,270,6.0,9.0,47,0.00,,,0.00,,2013-02-20 07:31:00,
2013-02-20 00:41:00,54.0,34.0,29.70,West,270,6.0,9.0,47,0.00,,,0.00,,2013-02-20 07:41:00,
2013-02-20 00:52:00,54.0,35.0,29.70,WSW,248,3.0,5.0,48,0.00,,,0.00,,2013-02-20 07:52:00,
2013-02-20 01:01:00,54.0,35.0,29.70,WSW,248,3.0,5.0,49,0.00,,,0.00,,2013-02-20 08:01:00,
2013-02-20 01:11:00,53.0,35.0,29.70,WSW,248,1.0,2.0,50,0.00,,,0.00,,2013-02-20 08:11:00,
2013-02-20 01:21:00,53.0,35.0,29.70,WSW,248,1.0,2.0,50,0.00,,,0.00,,2013-02-20 08:21:00,
2013-02-20 01:31:00,53.0,36.0,29.70,WSW,248,0.0,0.0,52,0.00,,,0.00,,2013-02-20 08:31:00,
2013-02-20 01:41:00,53.0,36.0,29.70,WSW,248,0.0,0.0,52,0.00,,,0.00,,2013-02-20 08:41:00,
2013-02-20 01:52:00,52.0,35.0,29.70,WSW,248,0.0,0.0,53,0.00,,,0.00,,2013-02-20 08:52:00,
2013-02-20 02:01:00,51.0,35.0,29.70,WSW,248,1.0,2.0,54,0.00,,,0.00,,2013-02-20 09:01:00,
2013-02-20 02:11:00,51.0,35.0,29.70,WSW,248,1.0,2.0,54,0.00,,,0.00,,2013-02-20 09:11:00,
2013-02-20 02:21:00,51.0,35.0,29.69,WSW,248,2.0,5.0,55,0.00,,,0.00,,2013-02-20 09:21:00,
2013-02-20 02:31:00,50.0,34.0,29.69,WSW,248,0.0,0.0,54,0.00,,,0.00,,2013-02-20 09:31:00,
2013-02-20 02:41:00,50.0,34.0,29.69,WSW,248,0.0,0.0,54,0.00,,,0.00,,2013-02-20 09:41:00,
2013-02-20 02:51:00,51.0,35.0,29.70,WSW,248,1.0,2.0,55,0.00,,,0.00,,2013-02-20 09:51:00,
2013-02-20 03:01:00,51.0,35.0,29.68,SW,225,0.0,2.0,55,0.00,,,0.00,,2013-02-20 10:01:00,
2013-02-20 03:11:00,51.0,35.0,29.68,SW,225,0.0,2.0,55,0.00,,,0.00,,2013-02-20 10:11:00,
2013-02-20 03:21:00,51.0,35.0,29.67,SW,225,0.0,0.0,55,0.00,,,0.00,,2013-02-20 10:21:00,
2013-02-20 03:31:00,51.0,35.0,29.67,SW,225,1.0,2.0,55,0.00,,,0.00,,2013-02-20 10:31:00,
2013-02-20 03:41:00,51.0,35.0,29.67,SW,225,1.0,2.0,55,0.00,,,0.00,,2013-02-20 10:41:00,
2013-02-20 03:51:00,51.0,35.0,29.66,SW,225,1.0,2.0,55,0.00,,,0.00,,2013-02-20 10:51:00,
2013-02-20 04:01:00,51.0,35.0,29.66,SW,225,0.0,0.0,54,0.00,,,0.00,,2013-02-20 11:01:00,
2013-02-20 04:11:00,51.0,36.0,29.65,SW,225,0.0,0.0,57,0.00,,,0.00,,2013-02-20 11:11:00,
2013-02-20 04:21:00,51.0,36.0,29.65,SW,225,0.0,0.0,57,0.00,,,0.00,,2013-02-20 11:21:00,
2013-02-20 04:31:00,51.0,36.0,29.65,SW,225,0.0,0.0,57,0.00,,,0.00,,2013-02-20 11:31:00,
2013-02-20 04:41:00,51.0,36.0,29.65,SW,225,0.0,0.0,57,0.00,,,0.00,,2013-02-20 11:41:00,
2013-02-20 04:52:00,51.0,37.0,29.66,SW,225,1.0,3.0,58,0.00,,,0.00,,2013-02-20 11:52:00,
2013-02-20 05:01:00,51.0,39.0,29.68,WSW,248,5.0,6.0,63,0.00,,,0.00,,2013-02-20 12:01:00,
2013-02-20 05:11:00,51.0,39.0,29.68,WSW,248,5.0,6.0,63,0.00,,,0.00,,2013-02-20 12:11:00,
2013-02-20 05:21:00,50.0,40.0,29.68,West,270,2.0,3.0,68,0.01,,,0.01,,2013-02-20 12:21:00,
2013-02-20 05:31:00,49.0,40.0,29.67,West,270,1.0,3.0,71,0.01,,,0.01,,2013-02-20 12:31:00,
2013-02-20 05:41:00,49.0,40.0,29.67,West,270,1.0,3.0,71,0.01,,,0.01,,2013-02-20 12:41:00,
2013-02-20 05:52:00,49.0,41.0,29.69,West,270,2.0,3.0,73,0.01,,,0.01,,2013-02-20 12:52:00,
2013-02-20 06:01:00,49.0,41.0,29.69,West,270,0.0,1.0,74,0.01,,,0.01,,2013-02-20 13:01:00,
2013-02-20 06:11:00,49.0,41.0,29.69,West,270,0.0,1.0,74,0.01,,,0.01,,2013-02-20 13:11:00,
2013-02-20 06:22:00,49.0,41.0,29.69,WSW,248,2.0,3.0,75,0.00,,,0.01,,2013-02-20 13:22:00,
2013-02-20 06:31:00,49.0,41.0,29.70,SW,225,3.0,8.0,74,0.00,,,0.01,,2013-02-20 13:31:00,
2013-02-20 06:42:00,49.0,41.0,29.70,SW,225,3.0,8.0,74,0.00,,,0.01,,2013-02-20 13:42:00,
2013-02-20 06:51:00,49.0,41.0,29.69,SW,225,3.0,7.0,73,0.00,,,0.01,,2013-02-20 13:51:00,
2013-02-20 07:01:00,49.0,39.0,29.69,SW,225,7.0,13.0,69,0.00,,,0.01,,2013-02-20 14:01:00,
2013-02-20 07:11:00,49.0,39.0,29.69,SW,225,7.0,13.0,69,0.00,,,0.01,,2013-02-20 14:11:00,
2013-02-20 07:21:00,48.0,38.0,29.70,SW,225,1.0,3.0,69,0.00,,,0.01,,2013-02-20 14:21:00,
2013-02-20 07:32:00,48.0,38.0,29.70,WSW,248,2.0,3.0,69,0.00,,,0.01,,2013-02-20 14:32:00,
2013-02-20 07:42:00,47.0,37.0,29.70,WSW,248,1.0,2.0,68,0.00,,,0.01,,2013-02-20 14:42:00,
2013-02-20 07:52:00,47.0,37.0,29.70,WSW,248,1.0,2.0,68,0.00,,,0.01,,2013-02-20 14:52:00,
2013-02-20 08:01:00,47.0,37.0,29.71,WSW,248,2.0,3.0,69,0.00,,,0.01,,2013-02-20 15:01:00,
2013-02-20 08:11:00,47.0,37.0,29.73,WSW,248,1.0,3.0,68,0.00,,,0.01,,2013-02-20 15:11:00,
2013-02-20 08:22:00,47.0,37.0,29.73,WSW,248,1.0,3.0,68,0.00,,,0.01,,2013-02-20 15:22:00,
2013-02-20 08:31:00,47.0,37.0,29.73,West,270,2.0,5.0,67,0.00,,,0.01,,2013-02-20 15:31:00,
2013-02-20 08:41:00,48.0,37.0,29.72,West,270,5.0,7.0,65,0.00,,,0.01,,2013-02-20 15:41:00,
2013-02-20 08:52:00,48.0,37.0,29.72,West,270,5.0,7.0,65,0.00,,,0.01,,2013-02-20 15:52:00,
2013-02-20 09:01:00,50.0,37.0,29.73,West,270,1.0,3.0,61,0.00,,,0.01,,2013-02-20 16:01:00,
2013-02-20 09:11:00,50.0,35.0,29.74,West,270,6.0,12.0,56,0.00,,,0.01,,2013-02-20 16:11:00,
2013-02-20 09:21:00,50.0,35.0,29.74,West,270,6.0,12.0,56,0.00,,,0.01,,2013-02-20 16:21:00,
2013-02-20 09:32:00,50.0,34.0,29.74,WSW,248,7.0,13.0,55,0.00,,,0.01,,2013-02-20 16:32:00,
2013-02-20 09:41:00,52.0,36.0,29.75,West,270,7.0,10.0,54,0.00,,,0.01,,2013-02-20 16:41:00,
2013-02-20 09:52:00,52.0,36.0,29.75,West,270,7.0,10.0,54,0.00,,,0.01,,2013-02-20 16:52:00,
2013-02-20 10:01:00,52.0,35.0,29.76,West,270,6.0,12.0,52,0.00,,,0.01,,2013-02-20 17:01:00,
2013-02-20 10:11:00,53.0,35.0,29.76,WSW,248,5.0,10.0,51,0.00,,,0.01,,2013-02-20 17:11:00,
2013-02-20 10:21:00,53.0,35.0,29.76,WSW,248,5.0,10.0,51,0.00,,,0.01,,2013-02-20 17:21:00,
2013-02-20 10:32:00,53.0,35.0,29.75,West,270,3.0,7.0,51,0.00,,,0.01,,2013-02-20 17:32:00,
2013-02-20 10:41:00,54.0,36.0,29.76,WSW,248,7.0,13.0,50,0.00,,,0.01,,2013-02-20 17:41:00,
2013-02-20 10:52:00,54.0,36.0,29.76,WSW,248,7.0,13.0,50,0.00,,,0.01,,2013-02-20 17:52:00,
2013-02-20 11:02:00,56.0,36.0,29.76,WSW,248,8.0,12.0,46,0.00,,,0.01,,2013-02-20 18:02:00,
2013-02-20 11:11:00,56.0,36.0,29.76,WSW,248,8.0,12.0,46,0.00,,,0.01,,2013-02-20 18:11:00,
2013-02-20 11:21:00,56.0,34.0,29.75,WSW,248,6.0,10.0,44,0.00,,,0.01,,2013-02-20 18:21:00,
2013-02-20 11:31:00,56.0,35.0,29.76,WSW,248,8.0,12.0,45,0.00,,,0.01,,2013-02-20 18:31:00,
2013-02-20 11:41:00,56.0,35.0,29.76,WSW,248,8.0,12.0,45,0.00,,,0.01,,2013-02-20 18:41:00,
2013-02-20 11:52:00,58.0,36.0,29.75,SW,225,6.0,10.0,43,0.00,,,0.01,,2013-02-20 18:52:00,
2013-02-20 12:01:00,57.0,32.0,29.76,WSW,248,9.0,17.0,39,0.00,,,0.01,,2013-02-20 19:01:00,
2013-02-20 12:11:00,57.0,32.0,29.76,WSW,248,9.0,17.0,39,0.00,,,0.01,,2013-02-20 19:11:00,
2013-02-20 12:21:00,58.0,33.0,29.76,West,270,7.0,12.0,39,0.00,,,0.01,,2013-02-20 19:21:00,
2013-02-20 12:31:00,60.0,32.0,29.75,WSW,248,8.0,17.0,35,0.00,,,0.01,,2013-02-20 19:31:00,
2013-02-20 12:41:00,60.0,32.0,29.75,WSW,248,8.0,17.0,35,0.00,,,0.01,,2013-02-20 19:41:00,
2013-02-20 12:52:00,60.0,32.0,29.76,West,270,5.0,8.0,34,0.00,,,0.01,,2013-02-20 19:52:00,
2013-02-20 13:01:00,59.0,31.0,29.75,WSW,248,8.0,12.0,34,0.00,,,0.01,,2013-02-20 20:01:00,
2013-02-20 13:11:00,61.0,31.0,29.75,WSW,248,6.0,8.0,32,0.00,,,0.01,,2013-02-20 20:11:00,
2013-02-20 13:21:00,61.0,31.0,29.75,WSW,248,6.0,8.0,32,0.00,,,0.01,,2013-02-20 20:21:00,
2013-02-20 13:31:00,60.0,31.0,29.75,West,270,7.0,10.0,33,0.00,,,0.01,,2013-02-20 20:31:00,
2013-02-20 13:41:00,60.0,29.0,29.75,SW,225,3.0,5.0,31,0.00,,,0.01,,2013-02-20 20:41:00,
2013-02-20 13:51:00,60.0,29.0,29.75,SW,225,3.0,5.0,31,0.00,,,0.01,,2013-02-20 20:51:00,
2013-02-20 14:01:00,61.0,29.0,29.75,WNW,293,7.0,13.0,30,0.00,,,0.01,,2013-02-20 21:01:00,
2013-02-20 14:11:00,61.0,30.0,29.76,West,270,2.0,3.0,31,0.00,,,0.01,,2013-02-20 21:11:00,
2013-02-20 14:21:00,61.0,30.0,29.76,West,270,2.0,3.0,31,0.00,,,0.01,,2013-02-20 21:21:00,
2013-02-20 14:31:00,62.0,29.0,29.75,West,270,7.0,10.0,29,0.00,,,0.01,,2013-02-20 21:31:00,
2013-02-20 14:41:00,62.0,29.0,29.75,West,270,7.0,10.0,29,0.00,,,0.01,,2013-02-20 21:41:00,
2013-02-20 14:52:00,63.0,29.0,29.76,West,270,7.0,9.0,27,0.00,,,0.01,,2013-02-20 21:52:00,
2013-02-20 15:01:00,62.0,28.0,29.76,West,270,8.0,15.0,27,0.00,,,0.01,,2013-02-20 22:01:00,
2013-02-20 15:11:00,60.0,27.0,29.76,West,270,7.0,13.0,28,0.00,,,0.01,,2013-02-20 22:11:00,
2013-02-20 15:21:00,60.0,27.0,29.76,West,270,7.0,13.0,28,0.00,,,0.01,,2013-02-20 22:21:00,
2013-02-20 15:31:00,59.0,26.0,29.77,WNW,293,5.0,9.0,28,0.00,,,0.01,,2013-02-20 22:31:00,
2013-02-20 15:41:00,59.0,26.0,29.77,WNW,293,5.0,9.0,28,0.00,,,0.01,,2013-02-20 22:41:00,
2013-02-20 15:51:00,59.0,27.0,29.78,West,270,8.0,14.0,29,0.00,,,0.01,,2013-02-20 22:51:00,
2013-02-20 16:01:00,59.0,28.0,29.78,West,270,5.0,9.0,30,0.00,,,0.01,,2013-02-20 23:01:00,
2013-02-20 16:11:00,60.0,29.0,29.78,NW,315,8.0,12.0,31,0.00,,,0.01,,2013-02-20 23:11:00,
2013-02-20 16:21:00,60.0,29.0,29.78,NW,315,8.0,12.0,31,0.00,,,0.01,,2013-02-20 23:21:00,
2013-02-20 16:31:00,60.0,28.0,29.78,NW,315,6.0,10.0,30,0.00,,,0.01,,2013-02-20 23:31:00,
2013-02-20 16:42:00,60.0,28.0,29.78,NW,315,6.0,10.0,30,0.00,,,0.01,,2013-02-20 23:42:00,
2013-02-20 16:52:00,60.0,28.0,29.78,WNW,293,3.0,7.0,30,0.00,,,0.01,,2013-02-20 23:52:00,
2013-02-20 17:02:00,60.0,29.0,29.78,North,0,8.0,10.0,31,0.00,,,0.01,,2013-02-21 00:02:00,
2013-02-20 17:11:00,60.0,29.0,29.78,North,0,8.0,10.0,31,0.00,,,0.01,,2013-02-21 00:11:00,
2013-02-20 17:21:00,60.0,30.0,29.78,NW,315,3.0,8.0,32,0.00,,,0.01,,2013-02-21 00:21:00,
2013-02-20 17:31:00,60.0,30.0,29.79,WNW,293,6.0,10.0,32,0.00,,,0.01,,2013-02-21 00:31:00,
2013-02-20 17:41:00,59.0,30.0,29.80,WSW,248,1.0,3.0,33,0.00,,,0.01,,2013-02-21 00:41:00,
2013-02-20 17:52:00,59.0,30.0,29.80,WSW,248,1.0,3.0,33,0.00,,,0.01,,2013-02-21 00:52:00,
2013-02-20 18:01:00,59.0,30.0,29.80,West,270,2.0,6.0,33,0.00,,,0.01,,2013-02-21 01:01:00,
2013-02-20 18:11:00,59.0,30.0,29.80,West,270,2.0,6.0,33,0.00,,,0.01,,2013-02-21 01:11:00,
2013-02-20 18:21:00,58.0,30.0,29.82,West,270,3.0,7.0,34,0.00,,,0.01,,2013-02-21 01:21:00,
2013-02-20 18:31:00,57.0,30.0,29.82,West,270,3.0,7.0,36,0.00,,,0.01,,2013-02-21 01:31:00,
2013-02-20 18:41:00,57.0,30.0,29.82,West,270,3.0,7.0,36,0.00,,,0.01,,2013-02-21 01:41:00,
2013-02-20 18:52:00,57.0,31.0,29.83,West,270,0.0,1.0,37,0.00,,,0.01,,2013-02-21 01:52:00,
2013-02-20 19:01:00,56.0,31.0,29.84,West,270,0.0,1.0,38,0.00,,,0.01,,2013-02-21 02:01:00,
2013-02-20 19:11:00,56.0,31.0,29.84,West,270,0.0,1.0,38,0.00,,,0.01,,2013-02-21 02:11:00,
2013-02-20 19:21:00,55.0,31.0,29.84,West,270,0.0,0.0,39,0.00,,,0.01,,2013-02-21 02:21:00,
2013-02-20 19:32:00,55.0,32.0,29.85,West,270,0.0,2.0,41,0.00,,,0.01,,2013-02-21 02:32:00,
2013-02-20 19:41:00,55.0,32.0,29.85,West,270,0.0,2.0,41,0.00,,,0.01,,2013-02-21 02:41:00,
2013-02-20 19:51:00,55.0,32.0,29.85,West,270,0.0,2.0,41,0.00,,,0.01,,2013-02-21 02:51:00,
2013-02-20 20:01:00,55.0,31.0,29.87,West,270,6.0,9.0,40,0.00,,,0.01,,2013-02-21 03:01:00,
2013-02-20 20:11:00,55.0,31.0,29.87,West,270,6.0,9.0,40,0.00,,,0.01,,2013-02-21 03:11:00,
2013-02-20 20:21:00,55.0,31.0,29.87,WSW,248,7.0,9.0,39,0.00,,,0.01,,2013-02-21 03:21:00,
2013-02-20 20:31:00,55.0,31.0,29.88,West,270,3.0,5.0,40,0.00,,,0.01,,2013-02-21 03:31:00,
2013-02-20 20:41:00,55.0,31.0,29.88,West,270,3.0,5.0,40,0.00,,,0.01,,2013-02-21 03:41:00,
2013-02-20 20:51:00,54.0,31.0,29.88,SW,225,2.0,5.0,41,0.00,,,0.01,,2013-02-21 03:51:00,
2013-02-20 21:01:00,54.0,32.0,29.89,WSW,248,1.0,2.0,43,0.00,,,0.01,,2013-02-21 04:01:00,
2013-02-20 21:11:00,54.0,32.0,29.89,WSW,248,1.0,2.0,43,0.00,,,0.01,,2013-02-21 04:11:00,
2013-02-20 21:21:00,53.0,32.0,29.89,WSW,248,1.0,3.0,45,0.00,,,0.01,,2013-02-21 04:21:00,
2013-02-20 21:31:00,52.0,32.0,29.90,WSW,248,2.0,3.0,46,0.00,,,0.01,,2013-02-21 04:31:00,
2013-02-20 21:41:00,52.0,32.0,29.90,WSW,248,2.0,3.0,46,0.00,,,0.01,,2013-02-21 04:41:00,
2013-02-20 21:52:00,52.0,32.0,29.90,West,270,2.0,3.0,47,0.00,,,0.01,,2013-02-21 04:52:00,
2013-02-20 22:02:00,51.0,31.0,29.91,West,270,6.0,12.0,47,0.00,,,0.01,,2013-02-21 05:02:00,
2013-02-20 22:11:00,51.0,31.0,29.91,West,270,6.0,12.0,47,0.00,,,0.01,,2013-02-21 05:11:00,
2013-02-20 22:21:00,52.0,33.0,29.91,SW,225,2.0,3.0,48,0.00,,,0.01,,2013-02-21 05:21:00,
2013-02-20 22:32:00,52.0,33.0,29.92,WSW,248,3.0,6.0,48,0.00,,,0.01,,2013-02-21 05:32:00,
2013-02-20 22:42:00,52.0,33.0,29.92,WSW,248,3.0,6.0,48,0.00,,,0.01,,2013-02-21 05:42:00,
2013-02-20 22:54:00,51.0,32.0,29.92,WSW,248,2.0,3.0,48,0.00,,,0.01,,2013-02-21 05:54:00,
2013-02-20 23:01:00,51.0,33.0,29.92,WSW,248,2.0,3.0,49,0.00,,,0.01,,2013-02-21 06:01:00,
2013-02-20 23:10:00,50.0,32.0,29.92,WSW,248,2.0,3.0,50,0.00,,,0.01,,2013-02-21 06:10:00,
2013-02-20 23:21:00,50.0,32.0,29.92,WSW,248,2.0,3.0,50,0.00,,,0.01,,2013-02-21 06:21:00,
2013-02-20 23:31:00,50.0,33.0,29.92,WSW,248,0.0,0.0,51,0.00,,,0.01,,2013-02-21 06:31:00,
2013-02-20 23:41:00,49.0,33.0,29.92,WSW,248,0.0,0.0,53,0.00,,,0.01,,2013-02-21 06:41:00,
2013-02-20 23:51:00,49.0,33.0,29.92,WSW,248,0.0,0.0,53,0.00,,,0.01,,2013-02-21 06:51:00,